Time;durP1;ratioP1;P1;durP2;ratioP2;P2;SDS_P1;SDS_P2;PMS_P1;PMS_P2;Temp;Humidity;BMP_temperature;BMP_pressure;BME280_temperature;BME280_humidity;BME280_pressure;Samples;Min_cycle;Max_cycle;Signal;HPM_P1;HPM_P2
2022/01/16 00:04:12;;;;;;;12.00;5.63;;;;;;;-1.31;100.00;99222.43;1684896;85;21007;-69
2022/01/16 00:09:11;;;;;;;14.85;6.17;;;;;;;-1.31;100.00;99231.72;1688041;85;21548;-69
2022/01/16 00:11:39;;;;;;;9.90;4.00;;;;;;;-1.29;100.00;99236.42;1651291;85;21540;-70
2022/01/16 00:14:06;;;;;;;23.87;10.53;;;;;;;-1.26;100.00;99236.16;1688019;85;21027;-70
2022/01/16 00:16:33;;;;;;;20.73;8.77;;;;;;;-1.23;100.00;99233.29;1688017;85;21055;-70
2022/01/16 00:19:01;;;;;;;12.97;6.13;;;;;;;-1.19;100.00;99236.09;1688212;85;21497;-69
2022/01/16 00:21:36;;;;;;;12.33;6.30;;;;;;;-1.17;100.00;99235.49;1688160;85;21024;-69
2022/01/16 00:24:04;;;;;;;7.23;4.33;;;;;;;-1.16;100.00;99234.52;1664443;85;21071;-69
2022/01/16 00:26:31;;;;;;;11.47;6.00;;;;;;;-1.13;100.00;99251.16;1633135;88;21513;-70
2022/01/16 00:28:58;;;;;;;17.93;9.93;;;;;;;-1.11;100.00;99259.88;1611894;88;21107;-70
2022/01/16 00:31:29;;;;;;;9.50;5.70;;;;;;;-1.09;100.00;99260.59;1633258;88;21122;-69
2022/01/16 00:33:56;;;;;;;6.47;3.80;;;;;;;-1.07;100.00;99253.36;1611930;88;21497;-70
2022/01/16 00:36:23;;;;;;;5.33;3.33;;;;;;;-1.06;100.00;99245.75;1633598;88;21130;-70
2022/01/16 00:38:52;;;;;;;7.43;4.17;;;;;;;-1.02;100.00;99257.84;1611799;88;21092;-69
2022/01/16 00:41:20;;;;;;;5.63;3.80;;;;;;;-1.02;100.00;99265.31;1633409;88;21122;-70
2022/01/16 00:43:48;;;;;;;8.17;4.93;;;;;;;-1.01;100.00;99268.80;1611593;88;21075;-70
2022/01/16 00:46:16;;;;;;;6.67;3.20;;;;;;;-0.99;100.00;99270.89;1633031;88;21126;-69
2022/01/16 00:48:49;;;;;;;6.33;3.77;;;;;;;-0.98;100.00;99260.13;1611835;88;21091;-69
2022/01/16 00:51:17;;;;;;;19.60;9.80;;;;;;;-0.95;100.00;99259.06;1633299;88;21107;-69
2022/01/16 00:53:44;;;;;;;15.53;7.90;;;;;;;-0.94;100.00;99241.33;1611935;88;21230;-69
2022/01/16 00:56:13;;;;;;;15.50;6.90;;;;;;;-0.92;100.00;99236.73;1633400;88;21063;-69
2022/01/16 00:58:40;;;;;;;12.17;5.77;;;;;;;-0.92;100.00;99240.27;1633382;88;21056;-70
2022/01/16 01:01:06;;;;;;;14.43;7.33;;;;;;;-0.92;100.00;99242.05;1610020;88;21570;-69
2022/01/16 01:03:34;;;;;;;11.00;5.67;;;;;;;-0.92;100.00;99238.07;1576722;91;21088;-70
2022/01/16 01:06:01;;;;;;;7.20;3.60;;;;;;;-0.91;100.00;99244.59;1625421;85;21086;-70
2022/01/16 01:08:29;;;;;;;4.70;3.47;;;;;;;-0.91;100.00;99248.57;1681268;84;21066;-69
2022/01/16 01:10:57;;;;;;;11.60;6.17;;;;;;;-0.89;100.00;99267.03;1684908;85;20971;-69
2022/01/16 01:15:58;;;;;;;13.43;7.30;;;;;;;-0.89;100.00;99277.16;1684762;85;21070;-70
2022/01/16 01:18:20;;;;;;;7.47;4.33;;;;;;;-0.89;100.00;99291.77;1681941;85;20999;-70
2022/01/16 01:20:49;;;;;;;43.17;28.13;;;;;;;-0.89;100.00;99306.36;1684911;85;21128;-70
2022/01/16 01:23:22;;;;;;;11.10;5.13;;;;;;;-0.89;100.00;99335.56;1681555;85;20998;-69
2022/01/16 01:25:49;;;;;;;;;;;;;;;-0.88;100.00;99355.84;1664467;85;20983;-69
2022/01/16 01:28:16;;;;;;;24.40;15.30;;;;;;;-0.88;100.00;99393.00;1684885;85;20402;-70
2022/01/16 01:30:46;;;;;;;44.53;28.47;;;;;;;-0.85;100.00;99431.73;1681543;85;21062;-69
2022/01/16 01:33:14;;;;;;;56.10;35.03;;;;;;;-0.85;100.00;99433.92;1684582;85;21065;-71
2022/01/16 01:35:42;;;;;;;84.03;49.97;;;;;;;-0.84;100.00;99410.88;1681881;85;21018;-69
2022/01/16 01:38:11;;;;;;;27.33;18.70;;;;;;;-0.83;100.00;99283.34;1681633;85;21070;-70
2022/01/16 01:40:39;;;;;;;8.10;5.20;;;;;;;-0.83;100.00;99214.33;1684935;85;21050;-70
2022/01/16 01:51:42;;;;;;;7.60;4.93;;;;;;;-0.90;100.00;99225.52;1681504;85;21030;-69
2022/01/16 01:54:07;;;;;;;4.63;3.60;;;;;;;-0.92;100.00;99307.08;1681641;85;21014;-69
2022/01/16 01:56:36;;;;;;;3.97;2.70;;;;;;;-0.92;100.00;99324.33;1681810;85;21535;-70
2022/01/16 01:59:03;;;;;;;4.50;3.17;;;;;;;-0.93;100.00;99330.61;1684457;85;21017;-69
2022/01/16 02:01:30;;;;;;;8.33;5.13;;;;;;;-0.93;100.00;99267.75;1686130;84;21041;-69
2022/01/16 02:03:57;;;;;;;7.30;3.37;;;;;;;-0.94;100.00;99295.73;1704367;84;21101;-69
2022/01/16 02:06:28;;;;;;;5.87;2.93;;;;;;;-0.93;100.00;99320.00;1702432;83;21011;-70
2022/01/16 02:08:57;;;;;;;4.70;2.60;;;;;;;-0.93;100.00;99320.00;1676831;84;21018;-70
2022/01/16 02:11:28;;;;;;;4.63;2.90;;;;;;;-0.94;100.00;99308.52;1706442;84;20987;-69
2022/01/16 02:14:02;;;;;;;3.10;2.80;;;;;;;-0.92;100.00;99285.84;1706311;84;21511;-69
2022/01/16 02:28:14;;;;;;;5.77;2.73;;;;;;;-0.92;100.00;99340.25;1706507;84;21088;-69
2022/01/16 02:35:44;;;;;;;4.27;2.20;;;;;;;-0.91;100.00;99371.16;1681003;85;21634;-70
2022/01/16 02:38:09;;;;;;;3.13;2.13;;;;;;;-0.90;100.00;99374.16;1682693;84;21026;-70
2022/01/16 02:40:40;;;;;;;2.20;1.90;;;;;;;-0.90;100.00;99384.77;1706144;84;21077;-69
2022/01/16 02:43:05;;;;;;;3.07;2.27;;;;;;;-0.89;100.00;99374.05;1658426;85;21022;-69
2022/01/16 02:45:36;;;;;;;3.87;2.33;;;;;;;-0.89;100.00;99388.64;1706073;84;21011;-69
2022/01/16 02:48:06;;;;;;;3.93;2.87;;;;;;;-0.87;100.00;99380.57;1682825;84;21065;-69
2022/01/16 02:50:34;;;;;;;3.73;2.20;;;;;;;-0.86;100.00;99372.98;1706284;84;21523;-70
2022/01/16 02:53:09;;;;;;;4.13;2.50;;;;;;;-0.87;100.00;99376.59;1681249;85;21499;-70
2022/01/16 02:55:33;;;;;;;3.00;1.90;;;;;;;-0.87;100.00;99390.70;1682671;84;21038;-69
2022/01/16 02:58:01;;;;;;;4.83;2.63;;;;;;;-0.85;100.00;99400.75;1681262;85;21042;-69
2022/01/16 03:00:28;;;;;;;4.10;2.70;;;;;;;-0.84;100.00;99406.41;1706384;84;21579;-69
2022/01/16 03:02:55;;;;;;;7.73;3.30;;;;;;;-0.83;100.00;99416.08;1705109;84;21078;-70
2022/01/16 03:05:22;;;;;;;6.13;2.80;;;;;;;-0.84;100.00;99420.16;1666934;86;21014;-70
2022/01/16 03:07:50;;;;;;;6.30;2.90;;;;;;;-0.84;100.00;99426.80;1707026;82;21105;-70
2022/01/16 03:12:56;;;;;;;3.67;2.70;;;;;;;-0.86;100.00;99434.03;1690440;85;21482;-70
2022/01/16 03:15:23;;;;;;;2.70;2.40;;;;;;;-0.84;100.00;99450.69;1686896;85;21069;-70
2022/01/16 03:23:20;;;;;;;5.62;2.70;;;;;;;-0.86;100.00;99447.31;1687122;85;21037;-69
2022/01/16 03:25:49;;;;;;;5.33;2.90;;;;;;;-0.87;100.00;99462.36;1689263;85;21055;-69
2022/01/16 03:28:17;;;;;;;6.70;3.40;;;;;;;-0.88;100.00;99467.33;1686381;85;21034;-69
2022/01/16 03:30:44;;;;;;;3.63;2.00;;;;;;;-0.88;100.00;99473.13;1686364;85;21018;-69
2022/01/16 03:33:10;;;;;;;2.50;1.90;;;;;;;-0.87;100.00;99484.92;1689726;85;20998;-69
2022/01/16 03:35:38;;;;;;;6.00;2.80;;;;;;;-0.84;100.00;99497.15;1686282;85;21563;-69
2022/01/16 03:38:04;;;;;;;5.97;2.70;;;;;;;-0.84;100.00;99496.66;1689786;85;20982;-69
2022/01/16 03:40:32;;;;;;;4.23;1.90;;;;;;;-0.84;100.00;99486.53;1686226;85;21540;-69
2022/01/16 03:43:09;;;;;;;5.47;2.80;;;;;;;-0.82;100.00;99487.26;1686345;85;21042;-70
2022/01/16 03:45:28;;;;;;;2.73;1.90;;;;;;;-0.83;100.00;99497.04;1669701;85;21098;-70
2022/01/16 03:47:55;;;;;;;4.67;2.10;;;;;;;-0.83;100.00;99491.73;1689922;85;21527;-70
2022/01/16 03:50:22;;;;;;;3.43;1.67;;;;;;;-0.81;100.00;99499.09;1689695;85;21026;-70
2022/01/16 03:52:49;;;;;;;2.53;1.80;;;;;;;-0.78;100.00;99504.65;1686175;85;21043;-69
2022/01/16 03:55:16;;;;;;;2.53;1.90;;;;;;;-0.77;100.00;99501.05;1689676;85;21531;-69
2022/01/16 03:57:43;;;;;;;2.37;2.00;;;;;;;-0.78;100.00;99506.84;1686251;85;21086;-70
2022/01/16 04:00:11;;;;;;;5.30;3.10;;;;;;;-0.75;100.00;99501.78;1686056;85;21523;-69
2022/01/16 04:02:38;;;;;;;5.17;2.70;;;;;;;-0.74;100.00;99510.58;1703720;83;21467;-68
2022/01/16 04:05:06;;;;;;;2.57;1.93;;;;;;;-0.73;100.00;99514.45;1717026;83;21018;-70
2022/01/16 04:07:40;;;;;;;3.40;2.10;;;;;;;-0.73;100.00;99511.80;1710258;83;21023;-70
2022/01/16 04:10:08;;;;;;;2.17;1.70;;;;;;;-0.73;100.00;99515.78;1707459;83;20964;-70
2022/01/16 04:12:38;;;;;;;2.43;1.90;;;;;;;-0.73;100.00;99506.98;1707517;83;20986;-70
2022/01/16 04:17:40;;;;;;;3.67;2.40;;;;;;;-0.72;100.00;99527.27;1687839;84;21107;-69
2022/01/16 04:20:15;;;;;;;6.13;2.10;;;;;;;-0.72;100.00;99521.97;1685373;84;21002;-68
2022/01/16 04:22:45;;;;;;;4.67;1.90;;;;;;;-0.71;100.00;99518.33;1662635;85;21570;-69
2022/01/16 04:25:12;;;;;;;4.10;2.10;;;;;;;-0.72;100.00;99525.45;1666579;86;21043;-69
2022/01/16 04:27:41;;;;;;;4.23;2.13;;;;;;;-0.71;100.00;99514.34;1621311;86;21042;-69
2022/01/16 04:30:09;;;;;;;3.23;2.13;;;;;;;-0.72;100.00;99513.52;1666968;86;21034;-68
2022/01/16 04:32:36;;;;;;;3.10;1.70;;;;;;;-0.72;100.00;99517.49;1666845;86;21018;-69
2022/01/16 04:35:06;;;;;;;3.30;2.30;;;;;;;-0.73;100.00;99511.80;1643273;86;21078;-69
2022/01/16 04:37:34;;;;;;;5.43;2.30;;;;;;;-0.73;100.00;99514.95;1643128;86;21558;-69
2022/01/16 04:40:03;;;;;;;2.67;1.70;;;;;;;-0.74;100.00;99541.11;1643078;86;21074;-69
2022/01/16 04:45:22;;;;;;;2.23;1.93;;;;;;;-0.74;100.00;99533.15;1643031;86;21077;-69
2022/01/16 04:47:50;;;;;;;1.80;1.70;;;;;;;-0.75;100.00;99531.47;1666866;85;21054;-69
2022/01/16 04:50:17;;;;;;;3.53;2.10;;;;;;;-0.77;100.00;99529.77;1666699;86;21043;-72
2022/01/16 04:52:45;;;;;;;4.47;2.10;;;;;;;-0.76;100.00;99529.30;1666564;86;21102;-68
2022/01/16 04:55:12;;;;;;;5.53;2.07;;;;;;;-0.76;100.00;99539.92;1625657;87;21515;-70
2022/01/16 04:57:39;;;;;;;1.70;1.60;;;;;;;-0.77;100.00;99535.07;1648421;86;21110;-70
2022/01/16 05:00:10;;;;;;;4.10;1.80;;;;;;;-0.77;100.00;99539.55;1605081;87;21539;-68
2022/01/16 05:02:37;;;;;;;5.47;2.00;;;;;;;-0.75;100.00;99550.06;1625105;87;21486;-69
2022/01/16 05:05:07;;;;;;;3.77;1.70;;;;;;;-0.75;100.00;99550.06;1582695;89;21072;-70
2022/01/16 05:07:35;;;;;;;2.53;1.67;;;;;;;-0.77;100.00;99557.64;1601812;89;21160;-69
2022/01/16 05:10:03;;;;;;;2.73;1.90;;;;;;;-0.77;100.00;99559.45;1580123;90;21068;-69
2022/01/16 05:17:44;;;;;;;4.53;2.10;;;;;;;-0.75;100.00;99573.46;1535307;91;21100;-69
2022/01/16 05:20:12;;;;;;;2.77;1.47;;;;;;;-0.74;100.00;99568.53;1551891;90;21081;-70
2022/01/16 05:22:39;;;;;;;4.27;2.40;;;;;;;-0.75;100.00;99572.63;1569839;90;21108;-69
2022/01/16 05:25:11;;;;;;;4.03;1.90;;;;;;;-0.75;100.00;99578.77;1598024;90;21124;-69
2022/01/16 05:27:39;;;;;;;3.23;2.27;;;;;;;-0.75;100.00;99581.91;1598239;90;21629;-69
2022/01/16 05:30:07;;;;;;;3.23;2.00;;;;;;;-0.74;100.00;99583.14;1557318;90;21102;-70
2022/01/16 05:32:35;;;;;;;3.23;2.20;;;;;;;-0.74;100.00;99587.12;1601300;88;21098;-70
2022/01/16 05:35:02;;;;;;;5.90;2.80;;;;;;;-0.74;100.00;99596.87;1626780;88;21537;-71
2022/01/16 05:37:29;;;;;;;4.50;2.70;;;;;;;-0.74;100.00;99602.17;1578735;90;21080;-72
2022/01/16 05:39:56;;;;;;;3.47;2.07;;;;;;;-0.74;100.00;99598.20;1599455;90;21068;-70
2022/01/16 05:42:23;;;;;;;4.17;2.60;;;;;;;-0.75;100.00;99596.03;1599803;90;21101;-70
2022/01/16 05:44:50;;;;;;;4.83;2.60;;;;;;;-0.75;100.00;99592.53;1578027;90;21072;-70
2022/01/16 05:47:17;;;;;;;4.03;2.63;;;;;;;-0.77;100.00;99574.89;1599154;90;21140;-69
2022/01/16 05:49:44;;;;;;;4.03;2.53;;;;;;;-0.77;100.00;99586.84;1599389;90;21569;-69
2022/01/16 05:52:12;;;;;;;4.13;2.50;;;;;;;-0.75;100.00;99596.03;1599622;90;21067;-69
2022/01/16 05:54:39;;;;;;;4.60;2.50;;;;;;;-0.75;100.00;99607.98;1596722;90;21564;-69
2022/01/16 05:57:06;;;;;;;6.63;3.27;;;;;;;-0.74;100.00;99606.16;1595909;89;21031;-70
2022/01/16 05:59:33;;;;;;;4.23;2.70;;;;;;;-0.72;100.00;99614.89;1626913;87;21164;-70
2022/01/16 06:02:01;;;;;;;3.30;2.57;;;;;;;-0.72;100.00;99611.75;1614965;89;21105;-69
2022/01/16 06:04:28;;;;;;;5.80;3.20;;;;;;;-0.71;100.00;99608.61;1562364;91;21035;-70
2022/01/16 06:06:54;;;;;;;5.57;3.70;;;;;;;-0.70;100.00;99612.97;1569846;89;21619;-69
2022/01/16 06:09:21;;;;;;;6.43;4.37;;;;;;;-0.69;100.00;99610.21;1657312;85;21053;-69
2022/01/16 06:11:48;;;;;;;6.17;4.30;;;;;;;-0.68;100.00;99614.55;1613495;88;21582;-69
2022/01/16 06:14:17;;;;;;;10.03;6.37;;;;;;;-0.67;100.00;99616.74;1607273;88;21091;-69
2022/01/16 06:16:45;;;;;;;4.13;2.83;;;;;;;-0.67;100.00;99615.42;1628627;88;21096;-69
2022/01/16 06:19:12;;;;;;;3.53;2.40;;;;;;;-0.65;100.00;99616.15;1663493;85;21509;-70
2022/01/16 06:21:39;;;;;;;4.60;3.10;;;;;;;-0.64;100.00;99613.84;1667640;85;21091;-69
2022/01/16 06:24:06;;;;;;;3.70;2.90;;;;;;;-0.63;100.00;99621.70;1670788;85;21019;-69
2022/01/16 06:26:35;;;;;;;4.73;2.80;;;;;;;-0.60;100.00;99620.66;1667716;86;21051;-69
2022/01/16 06:29:02;;;;;;;2.60;2.40;;;;;;;-0.56;100.00;99622.61;1670470;85;21000;-69
2022/01/16 06:31:29;;;;;;;6.00;2.63;;;;;;;-0.55;100.00;99626.94;1670612;85;21123;-70
2022/01/16 06:33:59;;;;;;;4.60;2.77;;;;;;;-0.52;100.00;99637.36;1676992;86;21018;-70
2022/01/16 06:36:26;;;;;;;4.20;2.30;;;;;;;-0.52;100.00;99636.87;1661044;85;21109;-69
2022/01/16 06:38:55;;;;;;;5.80;2.97;;;;;;;-0.50;100.00;99636.76;1673107;85;21755;-69
2022/01/16 06:41:22;;;;;;;6.80;3.20;;;;;;;-0.48;100.00;99644.13;1660462;85;20986;-69
2022/01/16 06:43:49;;;;;;;5.00;3.37;;;;;;;-0.47;100.00;99640.53;1686327;84;21094;-70
2022/01/16 06:46:16;;;;;;;4.03;2.70;;;;;;;-0.45;100.00;99651.89;1669441;85;21027;-70
2022/01/16 06:48:43;;;;;;;9.80;4.90;;;;;;;-0.45;100.00;99649.23;1667789;85;21130;-69
2022/01/16 06:51:10;;;;;;;11.00;6.20;;;;;;;-0.45;100.00;99662.03;1667204;85;21075;-66
2022/01/16 06:53:38;;;;;;;16.93;9.70;;;;;;;-0.41;100.00;99666.64;1667433;85;21605;-67
2022/01/16 06:56:05;;;;;;;18.57;9.87;;;;;;;-0.41;100.00;99663.98;1670840;85;20988;-69
2022/01/16 06:58:32;;;;;;;12.97;7.37;;;;;;;-0.42;100.00;99669.78;1667424;85;21039;-70
2022/01/16 07:01:00;;;;;;;10.07;5.60;;;;;;;-0.40;100.00;99680.30;1671036;85;21580;-71
2022/01/16 07:03:27;;;;;;;5.63;3.70;;;;;;;-0.39;100.00;99672.23;1672666;85;21575;-69
2022/01/16 07:05:54;;;;;;;3.83;3.43;;;;;;;-0.40;100.00;99677.16;1683119;85;21067;-69
2022/01/16 07:08:26;;;;;;;5.67;3.43;;;;;;;-0.37;100.00;99676.56;1702777;84;21489;-69
2022/01/16 07:10:53;;;;;;;12.40;6.80;;;;;;;-0.37;100.00;99681.87;1692013;83;21050;-70
2022/01/16 07:13:21;;;;;;;6.63;3.13;;;;;;;-0.35;100.00;99675.97;1686129;85;20986;-70
2022/01/16 07:15:49;;;;;;;9.33;5.00;;;;;;;-0.35;100.00;99687.47;1717319;83;21035;-71
2022/01/16 07:18:16;;;;;;;11.10;6.10;;;;;;;-0.33;100.00;99694.00;1718640;83;21038;-70
2022/01/16 07:20:44;;;;;;;6.50;3.47;;;;;;;-0.33;100.00;99692.19;1718749;83;21062;-70
2022/01/16 07:23:15;;;;;;;4.90;3.27;;;;;;;-0.31;100.00;99696.06;1715843;83;21102;-70
2022/01/16 07:25:42;;;;;;;4.67;3.00;;;;;;;-0.28;100.00;99707.81;1714305;84;21038;-69
2022/01/16 07:28:09;;;;;;;6.83;4.53;;;;;;;-0.27;100.00;99710.82;1714246;84;21053;-69
2022/01/16 07:30:38;;;;;;;14.03;8.37;;;;;;;-0.26;100.00;99716.03;1690478;84;21086;-70
2022/01/16 07:33:06;;;;;;;4.53;3.20;;;;;;;-0.24;100.00;99710.61;1708870;84;21072;-70
2022/01/16 07:35:33;;;;;;;6.73;4.77;;;;;;;-0.23;100.00;99722.92;1708650;84;21062;-72
2022/01/16 07:38:00;;;;;;;3.53;2.20;;;;;;;-0.20;100.00;99738.66;1708541;84;21043;-71
2022/01/16 07:40:27;;;;;;;3.83;2.73;;;;;;;-0.18;100.00;99742.53;1714216;84;21015;-72
2022/01/16 07:42:55;;;;;;;7.87;3.97;;;;;;;-0.15;100.00;99744.98;1708668;84;21103;-73
2022/01/16 07:45:22;;;;;;;8.27;4.70;;;;;;;-0.12;100.00;99760.23;1708769;84;20999;-72
2022/01/16 07:47:50;;;;;;;6.60;4.03;;;;;;;-0.11;100.00;99763.23;1708667;84;21110;-73
2022/01/16 07:50:18;;;;;;;14.97;7.33;;;;;;;-0.11;100.00;99769.88;1708778;84;21509;-75
2022/01/16 07:52:48;;;;;;;6.67;4.53;;;;;;;-0.07;100.00;99762.53;1714079;83;21027;-72
2022/01/16 07:55:15;;;;;;;4.73;3.00;;;;;;;-0.03;100.00;99770.19;1690426;84;21527;-74
2022/01/16 07:57:42;;;;;;;5.33;2.60;;;;;;;0.01;100.00;99765.99;1714792;83;20999;-71
2022/01/16 08:00:12;;;;;;;5.57;3.40;;;;;;;0.03;100.00;99767.56;1709008;84;20979;-73
2022/01/16 08:02:42;;;;;;;8.77;2.60;;;;;;;0.03;100.00;99772.88;1695961;83;21042;-73
2022/01/16 08:05:10;;;;;;;5.87;3.00;;;;;;;0.03;100.00;99768.05;1731365;82;21047;-72
2022/01/16 08:07:37;;;;;;;6.50;3.70;;;;;;;0.06;100.00;99778.48;1730962;82;21032;-73
2022/01/16 08:10:07;;;;;;;5.77;3.67;;;;;;;0.07;100.00;99786.80;1712992;82;21028;-72
2022/01/16 08:12:36;;;;;;;3.27;2.37;;;;;;;0.09;100.00;99784.88;1731571;83;21016;-74
2022/01/16 08:15:04;;;;;;;4.43;2.50;;;;;;;0.13;100.00;99801.00;1731417;83;21103;-73
2022/01/16 08:17:32;;;;;;;5.80;2.50;;;;;;;0.15;100.00;99809.23;1707141;84;21517;-72
2022/01/16 08:19:59;;;;;;;4.60;2.90;;;;;;;0.16;100.00;99818.05;1731298;83;21076;-72
2022/01/16 08:22:26;;;;;;;4.63;3.07;;;;;;;0.19;100.00;99824.48;1731598;83;21020;-72
2022/01/16 08:24:53;;;;;;;3.73;2.57;;;;;;;0.18;100.00;99831.62;1731329;83;21036;-73
2022/01/16 08:27:20;;;;;;;4.37;2.37;;;;;;;0.19;100.00;99835.12;1713193;84;21029;-70
2022/01/16 08:29:47;;;;;;;4.40;2.40;;;;;;;0.20;100.00;99828.01;1713288;84;20989;-70
2022/01/16 08:32:14;;;;;;;4.80;2.73;;;;;;;0.20;100.00;99828.85;1731259;82;21064;-69
2022/01/16 08:34:42;;;;;;;4.17;2.63;;;;;;;0.20;100.00;99825.35;1713127;83;21056;-70
2022/01/16 08:37:09;;;;;;;6.80;3.07;;;;;;;0.18;100.00;99830.77;1713239;83;21021;-70
2022/01/16 08:39:36;;;;;;;4.73;3.20;;;;;;;0.20;100.00;99821.36;1731155;83;21087;-70
2022/01/16 08:42:04;;;;;;;4.63;3.50;;;;;;;0.25;100.00;99824.52;1731581;83;21016;-70
2022/01/16 08:44:32;;;;;;;5.30;3.33;;;;;;;0.27;100.00;99829.27;1731390;82;21111;-70
2022/01/16 08:46:59;;;;;;;6.43;2.83;;;;;;;0.31;100.00;99819.61;1731314;82;21513;-70
2022/01/16 08:49:25;;;;;;;5.70;2.80;;;;;;;0.34;100.00;99825.20;1731415;83;21497;-68
2022/01/16 08:51:55;;;;;;;4.57;2.53;;;;;;;0.34;100.00;99826.05;1713236;84;21537;-70
2022/01/16 08:54:22;;;;;;;5.00;2.80;;;;;;;0.36;100.00;99829.93;1713308;84;21036;-70
2022/01/16 08:56:49;;;;;;;7.47;2.97;;;;;;;0.34;100.00;99834.52;1730983;83;21072;-70
2022/01/16 08:59:16;;;;;;;6.47;3.00;;;;;;;0.37;100.00;99835.59;1713289;83;21490;-69
2022/01/16 09:01:43;;;;;;;3.03;2.23;;;;;;;0.38;100.00;99838.64;1730562;83;21032;-70
2022/01/16 09:04:10;;;;;;;7.87;3.30;;;;;;;0.37;100.00;99836.92;1677322;85;21542;-70
2022/01/16 09:06:37;;;;;;;4.27;3.00;;;;;;;0.35;100.00;99832.20;1679353;84;21088;-70
2022/01/16 09:09:04;;;;;;;4.80;2.47;;;;;;;0.36;100.00;99828.59;1669136;84;21050;-69
2022/01/16 09:11:32;;;;;;;4.33;2.13;;;;;;;0.38;100.00;99818.20;1659567;85;21040;-70
2022/01/16 09:13:59;;;;;;;4.17;2.10;;;;;;;0.41;100.00;99824.25;1663333;86;21046;-71
2022/01/16 09:16:26;;;;;;;5.10;2.37;;;;;;;0.43;100.00;99813.89;1659947;86;21108;-70
2022/01/16 09:18:53;;;;;;;4.43;2.17;;;;;;;0.44;100.00;99812.06;1636978;86;21014;-69
2022/01/16 09:21:20;;;;;;;4.60;2.80;;;;;;;0.44;100.00;99810.73;1696568;83;21076;-69
2022/01/16 09:23:49;;;;;;;7.13;3.67;;;;;;;0.47;100.00;99814.52;1663243;86;21018;-70
2022/01/16 09:26:17;;;;;;;5.27;3.20;;;;;;;0.48;100.00;99819.73;1659810;86;21525;-71
2022/01/16 09:28:44;;;;;;;4.33;2.50;;;;;;;0.54;100.00;99817.09;1622293;88;21589;-70
2022/01/16 09:31:11;;;;;;;7.60;3.37;;;;;;;0.55;100.00;99815.66;1663202;86;21118;-70
2022/01/16 09:33:39;;;;;;;4.80;2.40;;;;;;;0.56;100.00;99821.33;1659814;85;21589;-70
2022/01/16 09:36:08;;;;;;;8.17;3.40;;;;;;;0.55;100.00;99816.98;1622220;87;21087;-70
2022/01/16 09:38:37;;;;;;;6.07;3.57;;;;;;;0.52;100.00;99819.02;1663619;86;21029;-66
2022/01/16 09:41:04;;;;;;;3.60;2.30;;;;;;;0.52;100.00;99818.53;1661758;86;21036;-68
2022/01/16 09:43:33;;;;;;;5.13;2.93;;;;;;;0.52;100.00;99821.68;1624185;88;21064;-67
2022/01/16 09:46:01;;;;;;;11.70;6.40;;;;;;;0.53;100.00;99824.23;1665292;86;21038;-67
2022/01/16 09:48:29;;;;;;;10.33;5.00;;;;;;;0.56;100.00;99824.48;1673826;85;21924;-67
2022/01/16 09:50:58;;;;;;;9.27;4.70;;;;;;;0.61;100.00;99822.33;1624013;88;21547;-67
2022/01/16 09:53:25;;;;;;;8.47;3.40;;;;;;;0.66;100.00;99816.19;1645241;87;21112;-69
2022/01/16 09:55:52;;;;;;;4.90;3.00;;;;;;;0.69;100.00;99820.42;1663529;86;21086;-70
2022/01/16 09:58:20;;;;;;;8.93;4.90;;;;;;;0.69;100.00;99825.29;1697030;83;21013;-70
2022/01/16 10:00:47;;;;;;;5.77;3.50;;;;;;;0.68;100.00;99824.91;1622422;88;21040;-70
2022/01/16 10:03:42;;;;;;;12.17;6.80;;;;;;;0.67;100.00;99819.69;1634246;86;21082;-70
2022/01/16 10:06:16;;;;;;;6.73;3.90;;;;;;;0.64;100.00;99820.78;1602118;89;21085;-70
2022/01/16 10:08:44;;;;;;;4.80;2.73;;;;;;;0.57;100.00;99819.53;1640137;86;21061;-70
2022/01/16 10:11:38;;;;;;;7.30;2.93;;;;;;;0.50;100.00;99812.97;1667757;86;21073;-69
2022/01/16 10:14:21;;;;;;;5.27;2.47;;;;;;;0.46;100.00;99818.13;1650853;87;21576;-70
2022/01/16 10:16:42;;;;;;;5.13;2.73;;;;;;;0.45;100.00;99813.29;1617892;87;21013;-70
2022/01/16 10:19:22;;;;;;;4.27;2.70;;;;;;;0.43;100.00;99813.89;1651159;87;21068;-70
2022/01/16 10:21:49;;;;;;;6.13;3.17;;;;;;;0.41;100.00;99814.94;1649903;87;21042;-70
2022/01/16 10:24:29;;;;;;;7.00;3.30;;;;;;;0.40;100.00;99810.61;1617648;87;21546;-69
2022/01/16 10:27:14;;;;;;;7.13;3.40;;;;;;;0.42;100.00;99806.02;1651038;87;21053;-70
2022/01/16 10:29:48;;;;;;;11.97;4.83;;;;;;;0.43;100.00;99808.57;1596977;87;21073;-70
2022/01/16 10:32:22;;;;;;;5.60;3.07;;;;;;;0.46;100.00;99807.02;1628857;87;21557;-70
2022/01/16 10:35:08;;;;;;;10.47;4.57;;;;;;;0.52;100.00;99807.05;1596491;86;21016;-71
2022/01/16 10:37:35;;;;;;;7.30;3.33;;;;;;;0.58;100.00;99804.41;1628983;87;21033;-70
2022/01/16 10:40:16;;;;;;;7.23;3.00;;;;;;;0.64;100.00;99801.28;1613915;87;21021;-70
2022/01/16 10:42:54;;;;;;;8.80;4.20;;;;;;;0.66;100.00;99804.70;1668058;86;21029;-70
2022/01/16 10:45:28;;;;;;;11.73;4.50;;;;;;;0.71;100.00;99810.54;1628995;86;21064;-70
2022/01/16 10:48:00;;;;;;;14.00;5.50;;;;;;;0.76;100.00;99808.36;1650833;87;21052;-70
2022/01/16 10:50:33;;;;;;;11.90;5.03;;;;;;;0.80;100.00;99805.86;1639630;87;21549;-70
2022/01/16 10:53:05;;;;;;;8.07;4.30;;;;;;;0.76;100.00;99816.34;1626569;87;21101;-71
2022/01/16 10:55:46;;;;;;;12.35;4.40;;;;;;;0.75;100.00;99819.98;1629141;86;21521;-70
2022/01/16 10:58:30;;;;;;;14.10;5.47;;;;;;;0.78;100.00;99815.77;1639593;87;21541;-70
2022/01/16 11:01:03;;;;;;;10.60;3.70;;;;;;;0.81;100.00;99816.02;1650932;87;21121;-70
2022/01/16 11:03:31;;;;;;;8.70;4.03;;;;;;;0.77;100.00;99807.41;1611943;88;21504;-69
2022/01/16 11:05:58;;;;;;;6.60;3.40;;;;;;;0.75;100.00;99819.98;1653273;87;21094;-70
2022/01/16 11:08:26;;;;;;;5.60;2.97;;;;;;;0.69;100.00;99818.64;1717416;82;21537;-69
2022/01/16 11:10:59;;;;;;;7.10;3.40;;;;;;;0.64;100.00;99822.11;1725398;83;21151;-71
2022/01/16 11:13:30;;;;;;;10.78;4.47;;;;;;;0.65;100.00;99819.80;1701478;83;21019;-70
2022/01/16 11:16:04;;;;;;;4.73;2.40;;;;;;;0.66;100.00;99821.52;1615990;88;21056;-71
2022/01/16 11:18:35;;;;;;;5.90;2.97;;;;;;;0.62;100.00;99820.52;1584642;90;21128;-72
2022/01/16 11:23:32;;;;;;;13.07;5.13;;;;;;;0.57;100.00;99822.20;1564373;90;21048;-70
2022/01/16 11:26:06;;;;;;;11.00;5.00;;;;;;;0.56;100.00;99820.00;1584868;90;21085;-69
2022/01/16 11:28:34;;;;;;;6.07;3.00;;;;;;;0.59;100.00;99812.77;1584810;90;21115;-71
2022/01/16 11:31:09;;;;;;;8.33;4.40;;;;;;;0.63;100.00;99815.56;1564580;89;21001;-70
2022/01/16 11:33:39;;;;;;;5.93;3.20;;;;;;;0.67;100.00;99816.54;1564727;90;21044;-69
2022/01/16 11:36:13;;;;;;;4.23;1.90;;;;;;;0.72;100.00;99814.88;1584952;90;21077;-70
2022/01/16 11:38:49;;;;;;;4.03;2.33;;;;;;;0.75;100.00;99822.65;1584943;90;21081;-70
2022/01/16 11:41:24;;;;;;;4.17;2.40;;;;;;;0.81;100.00;99834.16;1564619;90;21048;-71
2022/01/16 11:43:54;;;;;;;3.53;2.27;;;;;;;0.88;100.00;99836.73;1557287;90;21076;-70
2022/01/16 11:46:22;;;;;;;7.97;4.00;;;;;;;0.95;100.00;99839.79;1564562;90;21036;-70
2022/01/16 11:48:55;;;;;;;9.83;4.63;;;;;;;1.05;100.00;99841.30;1584936;90;21576;-71
2022/01/16 11:51:39;;;;;;;6.95;3.40;;;;;;;1.19;100.00;99838.44;1585101;90;21088;-70
2022/01/16 11:54:36;;;;;;;11.37;4.53;;;;;;;1.35;100.00;99838.12;1584855;90;21072;-70
2022/01/16 11:57:28;;;;;;;11.23;5.40;;;;;;;1.42;100.00;99847.34;1546077;93;21067;-70
2022/01/16 12:00:15;;;;;;;8.20;3.40;;;;;;;1.37;100.00;99871.31;1537485;91;21107;-70
2022/01/16 12:02:45;;;;;;;7.53;3.50;;;;;;;1.16;100.00;99873.29;1460212;98;21180;-69
2022/01/16 12:05:26;;;;;;;10.70;4.30;;;;;;;0.99;100.00;99879.86;1484364;97;21114;-70
2022/01/16 12:07:56;;;;;;;5.63;3.20;;;;;;;0.88;100.00;99879.81;1475005;97;21162;-69
2022/01/16 12:10:44;;;;;;;6.00;3.00;;;;;;;0.79;100.00;99880.50;1473892;97;21623;-70
2022/01/16 12:13:45;;;;;;;6.50;3.40;;;;;;;0.63;100.00;99876.77;1508475;95;21034;-69
2022/01/16 12:16:42;;;;;;;8.13;3.97;;;;;;;0.52;100.00;99874.41;1512031;95;21093;-71
2022/01/16 12:19:36;;;;;;;4.67;2.83;;;;;;;0.49;100.00;99873.77;1551048;90;21109;-70
2022/01/16 12:22:05;;;;;;;8.27;3.80;;;;;;;0.46;100.00;99873.98;1589985;90;21091;-70
2022/01/16 12:24:41;;;;;;;5.47;3.00;;;;;;;0.47;100.00;99871.71;1589893;90;21033;-71
2022/01/16 12:27:41;;;;;;;7.50;3.47;;;;;;;0.48;100.00;99859.63;1589886;90;21037;-69
2022/01/16 12:30:42;;;;;;;11.53;4.47;;;;;;;0.48;100.00;99855.64;1590056;90;21044;-70
2022/01/16 12:33:25;;;;;;;7.47;3.83;;;;;;;0.50;100.00;99864.36;1561235;91;21129;-70